sensor_id;sensor_type;location;lat;lon;timestamp;pressure;altitude;pressure_sealevel;temperature;humidity
66560;BME280;53413;49.878;8.142;2023-07-16T00:01:40;99654.06;;;19.28;100.00
66560;BME280;53413;49.878;8.142;2023-07-16T00:04:05;99643.81;;;19.23;100.00
66560;BME280;53413;49.878;8.142;2023-07-16T00:06:30;99646.81;;;19.19;100.00
66560;BME280;53413;49.878;8.142;2023-07-16T00:08:56;99644.66;;;19.13;100.00
66560;BME280;53413;49.878;8.142;2023-07-16T00:11:21;99652.13;;;19.07;100.00
66560;BME280;53413;49.878;8.142;2023-07-16T00:13:46;99660.38;;;19.04;100.00
66560;BME280;53413;49.878;8.142;2023-07-16T00:16:13;99657.22;;;18.99;100.00
66560;BME280;53413;49.878;8.142;2023-07-16T00:18:39;99664.72;;;18.94;100.00
66560;BME280;53413;49.878;8.142;2023-07-16T00:21:04;99657.06;;;18.89;100.00
66560;BME280;53413;49.878;8.142;2023-07-16T00:23:29;99650.31;;;18.85;100.00
66560;BME280;53413;49.878;8.142;2023-07-16T00:25:55;99650.56;;;18.82;100.00
66560;BME280;53413;49.878;8.142;2023-07-16T00:28:20;99665.03;;;18.78;100.00
66560;BME280;53413;49.878;8.142;2023-07-16T00:30:45;99678.56;;;18.75;100.00
66560;BME280;53413;49.878;8.142;2023-07-16T00:33:11;99682.41;;;18.71;100.00
66560;BME280;53413;49.878;8.142;2023-07-16T00:35:36;99687.94;;;18.68;100.00
66560;BME280;53413;49.878;8.142;2023-07-16T00:38:01;99701.34;;;18.66;100.00
66560;BME280;53413;49.878;8.142;2023-07-16T00:40:27;99692.53;;;18.66;100.00
66560;BME280;53413;49.878;8.142;2023-07-16T00:42:52;99674.06;;;18.64;100.00
66560;BME280;53413;49.878;8.142;2023-07-16T00:45:17;99645.13;;;18.61;100.00
66560;BME280;53413;49.878;8.142;2023-07-16T00:47:43;99659.47;;;18.58;100.00
66560;BME280;53413;49.878;8.142;2023-07-16T00:50:10;99669.34;;;18.56;100.00
66560;BME280;53413;49.878;8.142;2023-07-16T00:52:36;99654.66;;;18.52;100.00
66560;BME280;53413;49.878;8.142;2023-07-16T00:55:02;99648.72;;;18.49;100.00
66560;BME280;53413;49.878;8.142;2023-07-16T00:57:28;99647.03;;;18.48;100.00
66560;BME280;53413;49.878;8.142;2023-07-16T00:59:54;99641.97;;;18.44;100.00
66560;BME280;53413;49.878;8.142;2023-07-16T01:02:20;99651.97;;;18.41;100.00
66560;BME280;53413;49.878;8.142;2023-07-16T01:04:46;99673.53;;;18.36;100.00
66560;BME280;53413;49.878;8.142;2023-07-16T01:07:13;99677.28;;;18.34;100.00
66560;BME280;53413;49.878;8.142;2023-07-16T01:09:42;99671.13;;;18.33;100.00
66560;BME280;53413;49.878;8.142;2023-07-16T01:12:08;99675.81;;;18.29;100.00
66560;BME280;53413;49.878;8.142;2023-07-16T01:14:34;99682.44;;;18.24;100.00
66560;BME280;53413;49.878;8.142;2023-07-16T01:17:06;99680.81;;;18.10;100.00
66560;BME280;53413;49.878;8.142;2023-07-16T01:19:34;99681.94;;;17.94;100.00
66560;BME280;53413;49.878;8.142;2023-07-16T01:24:46;99685.56;;;17.69;100.00
66560;BME280;53413;49.878;8.142;2023-07-16T01:27:27;99693.94;;;17.63;100.00
66560;BME280;53413;49.878;8.142;2023-07-16T01:29:58;99692.94;;;17.52;100.00
66560;BME280;53413;49.878;8.142;2023-07-16T01:32:28;99697.19;;;17.42;100.00
66560;BME280;53413;49.878;8.142;2023-07-16T01:34:55;99697.88;;;17.33;100.00
66560;BME280;53413;49.878;8.142;2023-07-16T01:37:21;99699.28;;;17.26;100.00
66560;BME280;53413;49.878;8.142;2023-07-16T01:39:46;99711.03;;;17.21;100.00
66560;BME280;53413;49.878;8.142;2023-07-16T01:42:12;99714.09;;;17.15;100.00
66560;BME280;53413;49.878;8.142;2023-07-16T01:44:37;99719.84;;;17.09;100.00
66560;BME280;53413;49.878;8.142;2023-07-16T01:49:48;99727.88;;;16.95;100.00
66560;BME280;53413;49.878;8.142;2023-07-16T01:52:13;99721.41;;;16.86;100.00
66560;BME280;53413;49.878;8.142;2023-07-16T01:54:39;99741.31;;;16.78;100.00
66560;BME280;53413;49.878;8.142;2023-07-16T01:57:04;99724.25;;;16.70;100.00
66560;BME280;53413;49.878;8.142;2023-07-16T01:59:30;99736.44;;;16.59;100.00
66560;BME280;53413;49.878;8.142;2023-07-16T02:01:55;99745.75;;;16.52;100.00
66560;BME280;53413;49.878;8.142;2023-07-16T02:04:21;99748.91;;;16.44;100.00
66560;BME280;53413;49.878;8.142;2023-07-16T02:06:46;99753.75;;;16.38;100.00
66560;BME280;53413;49.878;8.142;2023-07-16T02:09:13;99755.84;;;16.33;100.00
66560;BME280;53413;49.878;8.142;2023-07-16T02:11:38;99761.34;;;16.29;100.00
66560;BME280;53413;49.878;8.142;2023-07-16T02:14:04;99757.19;;;16.25;100.00
66560;BME280;53413;49.878;8.142;2023-07-16T02:16:29;99762.69;;;16.22;100.00
66560;BME280;53413;49.878;8.142;2023-07-16T02:18:54;99762.78;;;16.21;100.00
66560;BME280;53413;49.878;8.142;2023-07-16T02:21:20;99757.81;;;16.16;100.00
66560;BME280;53413;49.878;8.142;2023-07-16T02:23:45;99757.06;;;16.14;100.00
66560;BME280;53413;49.878;8.142;2023-07-16T02:26:10;99760.84;;;16.10;100.00
66560;BME280;53413;49.878;8.142;2023-07-16T02:28:36;99764.44;;;16.09;100.00
66560;BME280;53413;49.878;8.142;2023-07-16T02:31:02;99767.38;;;16.04;100.00
66560;BME280;53413;49.878;8.142;2023-07-16T02:33:28;99772.03;;;16.00;100.00
66560;BME280;53413;49.878;8.142;2023-07-16T02:35:53;99777.50;;;15.97;100.00
66560;BME280;53413;49.878;8.142;2023-07-16T02:38:19;99787.22;;;15.97;100.00
66560;BME280;53413;49.878;8.142;2023-07-16T02:40:45;99790.91;;;15.94;100.00
66560;BME280;53413;49.878;8.142;2023-07-16T02:43:11;99797.34;;;15.90;100.00
66560;BME280;53413;49.878;8.142;2023-07-16T02:45:36;99793.84;;;15.90;100.00
66560;BME280;53413;49.878;8.142;2023-07-16T02:48:02;99799.22;;;15.88;100.00
66560;BME280;53413;49.878;8.142;2023-07-16T02:50:28;99796.00;;;15.83;100.00
66560;BME280;53413;49.878;8.142;2023-07-16T02:52:53;99794.81;;;15.74;100.00
66560;BME280;53413;49.878;8.142;2023-07-16T02:55:18;99807.56;;;15.67;100.00
66560;BME280;53413;49.878;8.142;2023-07-16T02:57:44;99814.16;;;15.60;100.00
66560;BME280;53413;49.878;8.142;2023-07-16T03:00:09;99816.31;;;15.53;100.00
66560;BME280;53413;49.878;8.142;2023-07-16T03:02:35;99813.97;;;15.49;100.00
66560;BME280;53413;49.878;8.142;2023-07-16T03:05:00;99821.34;;;15.44;100.00
66560;BME280;53413;49.878;8.142;2023-07-16T03:07:26;99822.56;;;15.38;100.00
66560;BME280;53413;49.878;8.142;2023-07-16T03:09:51;99835.28;;;15.31;100.00
66560;BME280;53413;49.878;8.142;2023-07-16T03:12:16;99824.16;;;15.26;100.00
66560;BME280;53413;49.878;8.142;2023-07-16T03:14:43;99839.22;;;15.24;100.00
66560;BME280;53413;49.878;8.142;2023-07-16T03:17:08;99843.03;;;15.20;100.00
66560;BME280;53413;49.878;8.142;2023-07-16T03:19:34;99847.53;;;15.18;100.00
66560;BME280;53413;49.878;8.142;2023-07-16T03:21:59;99855.81;;;15.12;100.00
66560;BME280;53413;49.878;8.142;2023-07-16T03:24:24;99859.66;;;15.06;100.00
66560;BME280;53413;49.878;8.142;2023-07-16T03:26:50;99857.47;;;14.98;100.00
66560;BME280;53413;49.878;8.142;2023-07-16T03:29:15;99868.41;;;14.92;100.00
66560;BME280;53413;49.878;8.142;2023-07-16T03:31:40;99863.28;;;14.89;100.00
66560;BME280;53413;49.878;8.142;2023-07-16T03:34:06;99873.69;;;14.92;100.00
66560;BME280;53413;49.878;8.142;2023-07-16T03:36:31;99866.53;;;14.94;100.00
66560;BME280;53413;49.878;8.142;2023-07-16T03:38:57;99875.56;;;14.90;100.00
66560;BME280;53413;49.878;8.142;2023-07-16T03:41:22;99874.28;;;14.97;100.00
66560;BME280;53413;49.878;8.142;2023-07-16T03:43:47;99880.28;;;14.99;100.00
66560;BME280;53413;49.878;8.142;2023-07-16T03:46:13;99872.38;;;14.99;100.00
66560;BME280;53413;49.878;8.142;2023-07-16T03:48:38;99880.47;;;14.96;100.00
66560;BME280;53413;49.878;8.142;2023-07-16T03:51:03;99871.44;;;15.00;100.00
66560;BME280;53413;49.878;8.142;2023-07-16T03:53:28;99876.63;;;15.02;100.00
66560;BME280;53413;49.878;8.142;2023-07-16T03:55:54;99883.34;;;15.07;100.00
66560;BME280;53413;49.878;8.142;2023-07-16T03:58:19;99878.22;;;15.04;100.00
66560;BME280;53413;49.878;8.142;2023-07-16T04:00:44;99883.63;;;15.03;100.00
66560;BME280;53413;49.878;8.142;2023-07-16T04:03:10;99881.16;;;15.00;100.00
66560;BME280;53413;49.878;8.142;2023-07-16T04:05:35;99885.56;;;14.99;100.00
66560;BME280;53413;49.878;8.142;2023-07-16T04:08:00;99886.16;;;15.04;100.00
66560;BME280;53413;49.878;8.142;2023-07-16T04:10:26;99888.63;;;15.07;100.00
66560;BME280;53413;49.878;8.142;2023-07-16T04:12:51;99890.31;;;15.08;100.00
66560;BME280;53413;49.878;8.142;2023-07-16T04:15:17;99885.59;;;15.14;100.00
66560;BME280;53413;49.878;8.142;2023-07-16T04:17:42;99886.19;;;15.19;100.00
66560;BME280;53413;49.878;8.142;2023-07-16T04:20:08;99888.56;;;15.23;100.00
66560;BME280;53413;49.878;8.142;2023-07-16T04:22:34;99885.63;;;15.28;100.00
66560;BME280;53413;49.878;8.142;2023-07-16T04:25:00;99884.59;;;15.31;100.00
66560;BME280;53413;49.878;8.142;2023-07-16T04:27:25;99890.53;;;15.34;100.00
66560;BME280;53413;49.878;8.142;2023-07-16T04:29:51;99898.09;;;15.41;100.00
66560;BME280;53413;49.878;8.142;2023-07-16T04:32:16;99899.50;;;15.46;100.00
66560;BME280;53413;49.878;8.142;2023-07-16T04:34:41;99909.69;;;15.52;100.00
66560;BME280;53413;49.878;8.142;2023-07-16T04:37:07;99901.31;;;15.60;100.00
66560;BME280;53413;49.878;8.142;2023-07-16T04:39:32;99904.34;;;15.68;100.00
66560;BME280;53413;49.878;8.142;2023-07-16T04:41:57;99908.19;;;15.77;100.00
66560;BME280;53413;49.878;8.142;2023-07-16T04:44:23;99911.25;;;15.85;100.00
66560;BME280;53413;49.878;8.142;2023-07-16T04:46:48;99896.59;;;15.94;100.00
66560;BME280;53413;49.878;8.142;2023-07-16T04:49:13;99896.78;;;16.06;100.00
66560;BME280;53413;49.878;8.142;2023-07-16T04:51:39;99890.81;;;16.16;100.00
66560;BME280;53413;49.878;8.142;2023-07-16T04:54:04;99891.84;;;16.28;100.00
66560;BME280;53413;49.878;8.142;2023-07-16T04:56:29;99881.44;;;16.40;100.00
66560;BME280;53413;49.878;8.142;2023-07-16T04:58:55;99877.22;;;16.50;100.00
66560;BME280;53413;49.878;8.142;2023-07-16T05:01:20;99881.81;;;16.61;100.00
66560;BME280;53413;49.878;8.142;2023-07-16T05:03:45;99886.59;;;16.69;100.00
66560;BME280;53413;49.878;8.142;2023-07-16T05:06:11;99891.28;;;16.78;100.00
66560;BME280;53413;49.878;8.142;2023-07-16T05:08:36;99891.44;;;16.89;100.00
66560;BME280;53413;49.878;8.142;2023-07-16T05:11:02;99888.19;;;16.99;100.00
66560;BME280;53413;49.878;8.142;2023-07-16T05:13:27;99899.84;;;17.09;100.00
66560;BME280;53413;49.878;8.142;2023-07-16T05:15:52;99903.69;;;17.18;100.00
66560;BME280;53413;49.878;8.142;2023-07-16T05:18:18;99916.31;;;17.27;100.00
66560;BME280;53413;49.878;8.142;2023-07-16T05:20:46;99912.81;;;17.39;100.00
66560;BME280;53413;49.878;8.142;2023-07-16T05:23:12;99918.34;;;17.49;100.00
66560;BME280;53413;49.878;8.142;2023-07-16T05:25:37;99922.25;;;17.57;100.00
66560;BME280;53413;49.878;8.142;2023-07-16T05:28:02;99927.78;;;17.66;100.00
66560;BME280;53413;49.878;8.142;2023-07-16T05:30:28;99925.44;;;17.75;100.00
66560;BME280;53413;49.878;8.142;2023-07-16T05:32:53;99926.25;;;17.88;100.00
66560;BME280;53413;49.878;8.142;2023-07-16T05:35:18;99927.22;;;18.00;100.00
66560;BME280;53413;49.878;8.142;2023-07-16T05:37:44;99931.78;;;18.11;100.00
66560;BME280;53413;49.878;8.142;2023-07-16T05:40:09;99941.50;;;18.23;100.00
66560;BME280;53413;49.878;8.142;2023-07-16T05:42:35;99938.81;;;18.36;100.00
66560;BME280;53413;49.878;8.142;2023-07-16T05:45:01;99944.72;;;18.53;100.00
66560;BME280;53413;49.878;8.142;2023-07-16T05:47:26;99945.16;;;18.71;100.00
66560;BME280;53413;49.878;8.142;2023-07-16T05:49:51;99937.84;;;21.25;100.00
66560;BME280;53413;49.878;8.142;2023-07-16T05:52:17;99940.53;;;26.20;81.85
66560;BME280;53413;49.878;8.142;2023-07-16T05:54:43;99932.34;;;29.81;60.89
66560;BME280;53413;49.878;8.142;2023-07-16T05:57:10;99946.50;;;32.55;49.93
66560;BME280;53413;49.878;8.142;2023-07-16T05:59:35;99937.91;;;34.06;45.09
66560;BME280;53413;49.878;8.142;2023-07-16T06:02:03;99946.25;;;35.40;40.56
66560;BME280;53413;49.878;8.142;2023-07-16T06:04:28;99935.00;;;36.29;38.82
66560;BME280;53413;49.878;8.142;2023-07-16T06:06:54;99950.09;;;37.17;37.48
66560;BME280;53413;49.878;8.142;2023-07-16T06:09:19;99937.34;;;37.94;35.70
66560;BME280;53413;49.878;8.142;2023-07-16T06:11:48;99954.19;;;38.72;34.10
66560;BME280;53413;49.878;8.142;2023-07-16T06:14:13;99955.72;;;39.14;33.03
66560;BME280;53413;49.878;8.142;2023-07-16T06:16:38;99962.41;;;39.97;31.88
66560;BME280;53413;49.878;8.142;2023-07-16T06:19:04;99960.97;;;40.16;31.08
66560;BME280;53413;49.878;8.142;2023-07-16T06:21:32;99961.88;;;40.22;30.55
66560;BME280;53413;49.878;8.142;2023-07-16T06:23:58;99971.91;;;40.88;30.53
66560;BME280;53413;49.878;8.142;2023-07-16T06:26:23;99962.13;;;40.70;29.27
66560;BME280;53413;49.878;8.142;2023-07-16T06:28:48;99969.50;;;41.78;28.88
66560;BME280;53413;49.878;8.142;2023-07-16T06:31:16;99976.22;;;41.97;28.60
66560;BME280;53413;49.878;8.142;2023-07-16T06:33:41;99972.41;;;42.04;27.94
66560;BME280;53413;49.878;8.142;2023-07-16T06:36:06;99965.94;;;42.67;27.79
66560;BME280;53413;49.878;8.142;2023-07-16T06:38:32;99964.84;;;42.73;26.48
66560;BME280;53413;49.878;8.142;2023-07-16T06:40:57;99964.84;;;42.78;26.66
66560;BME280;53413;49.878;8.142;2023-07-16T06:43:22;99968.44;;;43.30;26.27
66560;BME280;53413;49.878;8.142;2023-07-16T06:45:49;99975.72;;;43.87;25.71
66560;BME280;53413;49.878;8.142;2023-07-16T06:48:16;99963.38;;;43.68;26.00
66560;BME280;53413;49.878;8.142;2023-07-16T06:50:41;99970.28;;;43.61;25.67
66560;BME280;53413;49.878;8.142;2023-07-16T06:53:06;99973.66;;;44.23;25.60
66560;BME280;53413;49.878;8.142;2023-07-16T06:55:32;99968.84;;;44.39;24.75
66560;BME280;53413;49.878;8.142;2023-07-16T06:57:57;99959.47;;;44.35;24.77
66560;BME280;53413;49.878;8.142;2023-07-16T07:00:22;99962.00;;;45.35;24.16
66560;BME280;53413;49.878;8.142;2023-07-16T07:02:48;99963.75;;;45.99;23.06
66560;BME280;53413;49.878;8.142;2023-07-16T07:05:13;99963.34;;;44.34;23.72
66560;BME280;53413;49.878;8.142;2023-07-16T07:07:38;99963.13;;;43.55;23.87
66560;BME280;53413;49.878;8.142;2023-07-16T07:10:04;99965.63;;;43.66;24.62
66560;BME280;53413;49.878;8.142;2023-07-16T07:12:30;99967.19;;;44.43;24.14
66560;BME280;53413;49.878;8.142;2023-07-16T07:15:00;99966.44;;;45.37;22.65
66560;BME280;53413;49.878;8.142;2023-07-16T07:17:25;99973.72;;;44.98;22.86
66560;BME280;53413;49.878;8.142;2023-07-16T07:19:50;99972.31;;;44.61;23.77
66560;BME280;53413;49.878;8.142;2023-07-16T07:22:16;99974.22;;;45.00;22.96
66560;BME280;53413;49.878;8.142;2023-07-16T07:24:41;99977.56;;;44.62;23.07
66560;BME280;53413;49.878;8.142;2023-07-16T07:27:06;99973.69;;;44.58;23.91
66560;BME280;53413;49.878;8.142;2023-07-16T07:29:32;99972.66;;;44.88;23.11
66560;BME280;53413;49.878;8.142;2023-07-16T07:31:57;99974.03;;;45.20;22.48
66560;BME280;53413;49.878;8.142;2023-07-16T07:34:22;99971.72;;;43.37;24.05
66560;BME280;53413;49.878;8.142;2023-07-16T07:36:48;99970.81;;;42.34;25.13
66560;BME280;53413;49.878;8.142;2023-07-16T07:39:13;99969.81;;;43.17;24.76
66560;BME280;53413;49.878;8.142;2023-07-16T07:41:39;99967.91;;;44.09;23.19
66560;BME280;53413;49.878;8.142;2023-07-16T07:44:04;99977.22;;;43.48;23.51
66560;BME280;53413;49.878;8.142;2023-07-16T07:46:30;99976.44;;;43.32;23.44
66560;BME280;53413;49.878;8.142;2023-07-16T07:48:55;99975.59;;;43.31;23.63
66560;BME280;53413;49.878;8.142;2023-07-16T07:51:21;99981.38;;;43.45;23.07
66560;BME280;53413;49.878;8.142;2023-07-16T07:53:46;99980.50;;;44.31;22.79
66560;BME280;53413;49.878;8.142;2023-07-16T07:56:11;99979.28;;;43.92;22.80
66560;BME280;53413;49.878;8.142;2023-07-16T07:58:37;99975.63;;;43.05;23.48
66560;BME280;53413;49.878;8.142;2023-07-16T08:01:06;99987.91;;;41.29;25.03
66560;BME280;53413;49.878;8.142;2023-07-16T08:03:32;99978.16;;;40.56;26.49
66560;BME280;53413;49.878;8.142;2023-07-16T08:05:57;99974.97;;;42.36;24.57
66560;BME280;53413;49.878;8.142;2023-07-16T08:08:22;99988.34;;;42.02;24.73
66560;BME280;53413;49.878;8.142;2023-07-16T08:10:48;99986.31;;;42.50;23.90
66560;BME280;53413;49.878;8.142;2023-07-16T08:13:13;99985.19;;;43.55;23.48
66560;BME280;53413;49.878;8.142;2023-07-16T08:15:38;99979.19;;;44.68;22.93
66560;BME280;53413;49.878;8.142;2023-07-16T08:18:04;99981.94;;;45.03;23.01
66560;BME280;53413;49.878;8.142;2023-07-16T08:20:29;99973.69;;;42.96;24.14
66560;BME280;53413;49.878;8.142;2023-07-16T08:22:55;99977.25;;;43.01;23.43
66560;BME280;53413;49.878;8.142;2023-07-16T08:25:21;99982.78;;;42.86;23.69
66560;BME280;53413;49.878;8.142;2023-07-16T08:27:46;99986.81;;;43.81;23.02
66560;BME280;53413;49.878;8.142;2023-07-16T08:30:13;99986.88;;;42.73;24.22
66560;BME280;53413;49.878;8.142;2023-07-16T08:32:38;99990.13;;;43.73;23.17
66560;BME280;53413;49.878;8.142;2023-07-16T08:35:04;99987.25;;;43.99;23.23
66560;BME280;53413;49.878;8.142;2023-07-16T08:37:29;99989.38;;;45.37;21.89
66560;BME280;53413;49.878;8.142;2023-07-16T08:39:55;99995.38;;;45.74;20.93
66560;BME280;53413;49.878;8.142;2023-07-16T08:42:20;99997.56;;;46.20;20.62
66560;BME280;53413;49.878;8.142;2023-07-16T08:44:48;99985.97;;;45.94;20.81
66560;BME280;53413;49.878;8.142;2023-07-16T08:47:15;100004.88;;;45.87;20.46
66560;BME280;53413;49.878;8.142;2023-07-16T08:49:40;99996.31;;;46.51;20.35
66560;BME280;53413;49.878;8.142;2023-07-16T08:52:06;100004.00;;;46.73;19.80
66560;BME280;53413;49.878;8.142;2023-07-16T08:54:33;100001.44;;;46.77;19.74
66560;BME280;53413;49.878;8.142;2023-07-16T08:56:59;100003.94;;;46.40;20.07
66560;BME280;53413;49.878;8.142;2023-07-16T08:59:26;100001.94;;;46.98;19.89
66560;BME280;53413;49.878;8.142;2023-07-16T09:01:52;100008.03;;;45.26;20.77
66560;BME280;53413;49.878;8.142;2023-07-16T09:04:17;100002.56;;;45.16;21.41
66560;BME280;53413;49.878;8.142;2023-07-16T09:06:44;99997.97;;;44.21;22.82
66560;BME280;53413;49.878;8.142;2023-07-16T09:09:19;100002.25;;;46.01;20.65
66560;BME280;53413;49.878;8.142;2023-07-16T09:11:46;100003.38;;;46.38;20.38
66560;BME280;53413;49.878;8.142;2023-07-16T09:14:16;100002.28;;;45.17;21.65
66560;BME280;53413;49.878;8.142;2023-07-16T09:16:41;100001.69;;;45.20;20.93
66560;BME280;53413;49.878;8.142;2023-07-16T09:19:09;100005.34;;;45.16;21.56
66560;BME280;53413;49.878;8.142;2023-07-16T09:21:36;99999.97;;;45.54;19.85
66560;BME280;53413;49.878;8.142;2023-07-16T09:24:06;99989.66;;;43.09;22.43
66560;BME280;53413;49.878;8.142;2023-07-16T09:26:32;99999.47;;;43.88;21.83
66560;BME280;53413;49.878;8.142;2023-07-16T09:28:57;99984.91;;;45.12;20.81
66560;BME280;53413;49.878;8.142;2023-07-16T09:31:23;100004.25;;;45.71;20.43
66560;BME280;53413;49.878;8.142;2023-07-16T09:33:51;100010.56;;;46.20;19.80
66560;BME280;53413;49.878;8.142;2023-07-16T09:36:23;100012.28;;;45.91;19.35
66560;BME280;53413;49.878;8.142;2023-07-16T09:38:49;100000.78;;;45.30;20.11
66560;BME280;53413;49.878;8.142;2023-07-16T09:41:15;100001.63;;;44.56;20.64
66560;BME280;53413;49.878;8.142;2023-07-16T09:43:41;99989.47;;;44.07;20.67
66560;BME280;53413;49.878;8.142;2023-07-16T09:46:07;99994.97;;;44.12;20.82
66560;BME280;53413;49.878;8.142;2023-07-16T09:48:32;100006.56;;;44.09;20.69
66560;BME280;53413;49.878;8.142;2023-07-16T09:50:58;100002.91;;;42.97;21.46
66560;BME280;53413;49.878;8.142;2023-07-16T09:53:23;100004.22;;;41.08;23.04
66560;BME280;53413;49.878;8.142;2023-07-16T09:55:49;99998.84;;;40.37;23.71
66560;BME280;53413;49.878;8.142;2023-07-16T09:58:18;100008.19;;;39.40;25.44
66560;BME280;53413;49.878;8.142;2023-07-16T10:00:45;99997.13;;;38.14;25.25
66560;BME280;53413;49.878;8.142;2023-07-16T10:03:12;99998.41;;;37.47;27.03
66560;BME280;53413;49.878;8.142;2023-07-16T10:05:38;99989.00;;;37.42;26.46
66560;BME280;53413;49.878;8.142;2023-07-16T10:08:03;99991.81;;;37.83;26.53
66560;BME280;53413;49.878;8.142;2023-07-16T10:10:40;99987.94;;;39.07;24.28
66560;BME280;53413;49.878;8.142;2023-07-16T10:13:07;99989.38;;;39.66;23.66
66560;BME280;53413;49.878;8.142;2023-07-16T10:15:33;99993.38;;;40.64;23.11
66560;BME280;53413;49.878;8.142;2023-07-16T10:17:58;99981.66;;;40.74;22.24
66560;BME280;53413;49.878;8.142;2023-07-16T10:20:36;99993.31;;;40.14;23.45
66560;BME280;53413;49.878;8.142;2023-07-16T10:23:12;99983.47;;;39.01;24.36
66560;BME280;53413;49.878;8.142;2023-07-16T10:25:38;99995.03;;;37.21;26.66
66560;BME280;53413;49.878;8.142;2023-07-16T10:28:03;99992.63;;;35.33;28.35
66560;BME280;53413;49.878;8.142;2023-07-16T10:30:30;100006.97;;;33.65;30.81
66560;BME280;53413;49.878;8.142;2023-07-16T10:32:55;99994.31;;;32.63;31.39
66560;BME280;53413;49.878;8.142;2023-07-16T10:35:21;99992.25;;;31.53;32.08
66560;BME280;53413;49.878;8.142;2023-07-16T10:37:46;99986.66;;;30.53;34.04
66560;BME280;53413;49.878;8.142;2023-07-16T10:40:13;99994.75;;;30.16;34.06
66560;BME280;53413;49.878;8.142;2023-07-16T10:42:41;99993.81;;;29.94;33.45
66560;BME280;53413;49.878;8.142;2023-07-16T10:45:08;99991.09;;;29.64;34.06
66560;BME280;53413;49.878;8.142;2023-07-16T10:47:36;99996.63;;;29.47;33.80
66560;BME280;53413;49.878;8.142;2023-07-16T10:50:09;99993.94;;;29.24;34.97
66560;BME280;53413;49.878;8.142;2023-07-16T10:52:35;99993.38;;;29.29;36.13
66560;BME280;53413;49.878;8.142;2023-07-16T10:55:01;99993.47;;;29.21;35.67
66560;BME280;53413;49.878;8.142;2023-07-16T10:57:27;99996.19;;;28.66;36.28
66560;BME280;53413;49.878;8.142;2023-07-16T10:59:55;99995.06;;;28.52;36.52
66560;BME280;53413;49.878;8.142;2023-07-16T11:02:21;99994.16;;;28.68;36.42
66560;BME280;53413;49.878;8.142;2023-07-16T11:04:48;99990.66;;;28.59;37.13
66560;BME280;53413;49.878;8.142;2023-07-16T11:07:14;99986.41;;;28.33;37.11
66560;BME280;53413;49.878;8.142;2023-07-16T11:09:51;99984.72;;;28.32;36.85
66560;BME280;53413;49.878;8.142;2023-07-16T11:12:17;99989.59;;;28.37;36.06
66560;BME280;53413;49.878;8.142;2023-07-16T11:14:45;99989.22;;;27.92;36.92
66560;BME280;53413;49.878;8.142;2023-07-16T11:17:12;99978.69;;;27.65;36.93
66560;BME280;53413;49.878;8.142;2023-07-16T11:19:38;99983.09;;;27.58;37.21
66560;BME280;53413;49.878;8.142;2023-07-16T11:22:06;99985.22;;;27.71;37.15
66560;BME280;53413;49.878;8.142;2023-07-16T11:24:41;99981.72;;;27.71;37.42
66560;BME280;53413;49.878;8.142;2023-07-16T11:27:33;99985.44;;;27.45;37.13
66560;BME280;53413;49.878;8.142;2023-07-16T11:30:00;99986.94;;;27.14;39.02
66560;BME280;53413;49.878;8.142;2023-07-16T11:32:42;99989.63;;;27.23;38.91
66560;BME280;53413;49.878;8.142;2023-07-16T11:35:08;99987.91;;;27.79;38.93
66560;BME280;53413;49.878;8.142;2023-07-16T11:37:36;99979.94;;;28.03;37.77
66560;BME280;53413;49.878;8.142;2023-07-16T11:40:03;99986.00;;;27.96;35.78
66560;BME280;53413;49.878;8.142;2023-07-16T11:42:34;99985.72;;;27.83;37.52
66560;BME280;53413;49.878;8.142;2023-07-16T11:45:00;99991.09;;;27.83;37.50
66560;BME280;53413;49.878;8.142;2023-07-16T11:47:26;99985.97;;;28.13;36.54
66560;BME280;53413;49.878;8.142;2023-07-16T11:49:55;99982.44;;;28.04;36.61
66560;BME280;53413;49.878;8.142;2023-07-16T11:52:23;99977.50;;;28.24;36.92
66560;BME280;53413;49.878;8.142;2023-07-16T11:54:49;99990.88;;;28.49;35.37
66560;BME280;53413;49.878;8.142;2023-07-16T11:57:15;99986.75;;;28.30;36.43
66560;BME280;53413;49.878;8.142;2023-07-16T11:59:41;99986.66;;;28.07;36.37
66560;BME280;53413;49.878;8.142;2023-07-16T12:02:06;99984.34;;;27.87;36.46
66560;BME280;53413;49.878;8.142;2023-07-16T12:04:32;99983.81;;;27.92;36.91
66560;BME280;53413;49.878;8.142;2023-07-16T12:06:57;99980.94;;;28.10;36.16
66560;BME280;53413;49.878;8.142;2023-07-16T12:09:22;99972.06;;;28.41;37.34
66560;BME280;53413;49.878;8.142;2023-07-16T12:11:48;99975.53;;;28.81;36.95
66560;BME280;53413;49.878;8.142;2023-07-16T12:14:13;99970.59;;;29.16;36.21
66560;BME280;53413;49.878;8.142;2023-07-16T12:16:39;99970.13;;;29.66;35.75
66560;BME280;53413;49.878;8.142;2023-07-16T12:19:07;99964.56;;;29.83;34.53
66560;BME280;53413;49.878;8.142;2023-07-16T12:21:33;99959.25;;;29.74;33.59
66560;BME280;53413;49.878;8.142;2023-07-16T12:23:58;99961.66;;;29.31;34.84
66560;BME280;53413;49.878;8.142;2023-07-16T12:26:23;99969.13;;;29.06;34.61
66560;BME280;53413;49.878;8.142;2023-07-16T12:28:49;99964.47;;;28.76;35.22
66560;BME280;53413;49.878;8.142;2023-07-16T12:31:14;99959.38;;;28.50;35.83
66560;BME280;53413;49.878;8.142;2023-07-16T12:33:41;99970.16;;;28.50;36.28
66560;BME280;53413;49.878;8.142;2023-07-16T12:36:06;99963.38;;;28.54;37.08
66560;BME280;53413;49.878;8.142;2023-07-16T12:38:32;99960.47;;;28.64;36.98
66560;BME280;53413;49.878;8.142;2023-07-16T12:40:57;99952.00;;;28.75;36.32
66560;BME280;53413;49.878;8.142;2023-07-16T12:43:22;99961.16;;;28.57;35.79
66560;BME280;53413;49.878;8.142;2023-07-16T12:45:48;99955.50;;;28.52;36.49
66560;BME280;53413;49.878;8.142;2023-07-16T12:48:13;99962.84;;;28.58;36.41
66560;BME280;53413;49.878;8.142;2023-07-16T12:50:38;99961.56;;;28.78;35.35
66560;BME280;53413;49.878;8.142;2023-07-16T12:53:04;99957.75;;;28.72;35.25
66560;BME280;53413;49.878;8.142;2023-07-16T12:55:29;99954.75;;;28.90;35.10